createdAt,value
2019-03-26T00:00:07.414Z,16.09
2019-03-26T00:01:07.506Z,16.12
2019-03-26T00:02:07.396Z,16.24
2019-03-26T00:03:07.402Z,16.30
2019-03-26T00:04:07.374Z,16.36
2019-03-26T00:05:07.368Z,16.37
2019-03-26T00:06:07.356Z,16.43
2019-03-26T00:07:07.392Z,16.39
2019-03-26T01:01:06.857Z,16.90
2019-03-26T01:02:06.741Z,16.84
2019-03-26T01:03:06.731Z,16.90
2019-03-26T01:04:06.716Z,16.90
2019-03-26T01:05:06.713Z,16.90
2019-03-26T01:06:06.692Z,16.96
2019-03-26T01:07:06.933Z,16.90
2019-03-26T01:08:06.679Z,17.03
2019-03-26T01:09:06.665Z,17.00
2019-03-26T01:10:06.721Z,16.95
2019-03-26T01:11:06.649Z,16.96
2019-03-26T01:12:06.631Z,16.93
2019-03-26T01:13:06.672Z,16.93
2019-03-26T01:14:06.615Z,16.88
2019-03-26T01:15:06.601Z,16.69
2019-03-26T01:16:06.593Z,16.49
2019-03-26T01:17:06.588Z,16.15
2019-03-26T01:18:06.570Z,15.85
2019-03-26T01:19:06.609Z,15.64
2019-03-26T01:20:06.548Z,15.40
2019-03-26T01:21:06.549Z,15.18
2019-03-26T01:22:06.525Z,15.00
2019-03-26T01:23:06.518Z,14.77
2019-03-26T01:24:06.506Z,14.56
2019-03-26T01:25:06.747Z,14.52
2019-03-26T01:26:06.486Z,14.49
2019-03-26T01:27:06.473Z,14.49
2019-03-26T01:28:06.461Z,14.35
2019-03-26T01:29:06.449Z,14.37
2019-03-26T01:30:06.440Z,14.42
2019-03-26T01:31:06.527Z,14.54
2019-03-26T01:32:06.415Z,14.47
2019-03-26T01:33:06.410Z,14.38
2019-03-26T01:34:06.400Z,14.27
2019-03-26T01:35:06.387Z,14.27
2019-03-26T01:36:06.374Z,14.35
2019-03-26T01:37:06.415Z,14.43
2019-03-26T01:38:06.358Z,14.21
2019-03-26T01:39:06.346Z,14.27
2019-03-26T01:40:06.334Z,14.16
2019-03-26T01:41:06.323Z,14.12
2019-03-26T01:42:06.309Z,14.17
2019-03-26T01:43:06.454Z,14.37
2019-03-26T01:44:06.282Z,14.46
2019-03-26T01:45:06.275Z,14.50
2019-03-26T01:46:06.269Z,14.46
2019-03-26T01:47:06.252Z,14.38
2019-03-26T01:48:06.246Z,14.53
2019-03-26T01:49:06.285Z,14.68
2019-03-26T01:50:06.221Z,14.65
2019-03-26T01:51:06.212Z,14.68
2019-03-26T01:52:06.203Z,14.60
2019-03-26T01:53:06.192Z,14.52
2019-03-26T01:54:06.182Z,14.46
2019-03-26T01:55:06.268Z,14.42
2019-03-26T01:56:06.159Z,14.29
2019-03-26T01:57:06.155Z,14.14
2019-03-26T01:58:06.152Z,14.17
2019-03-26T01:59:06.132Z,14.27
2019-03-26T02:00:06.114Z,14.38
2019-03-26T02:01:06.255Z,14.50
2019-03-26T02:02:06.097Z,14.75
2019-03-26T02:03:06.086Z,14.92
2019-03-26T02:04:06.073Z,15.12
2019-03-26T02:05:06.059Z,15.34
2019-03-26T02:06:06.048Z,15.48
2019-03-26T02:07:06.138Z,15.63
2019-03-26T02:08:06.034Z,15.82
2019-03-26T02:09:06.017Z,15.99
2019-03-26T02:10:06.006Z,15.93
2019-03-26T02:11:06.000Z,15.85
2019-03-26T02:12:05.985Z,15.76
2019-03-26T02:13:06.074Z,15.86
2019-03-26T02:14:05.965Z,15.97
2019-03-26T02:15:05.958Z,16.21
2019-03-26T02:16:05.941Z,16.26
2019-03-26T02:17:05.932Z,16.29
2019-03-26T02:18:05.922Z,16.54
2019-03-26T02:19:06.055Z,16.61
2019-03-26T02:20:05.898Z,16.67
2019-03-26T02:21:05.889Z,16.77
2019-03-26T02:22:05.874Z,16.84
2019-03-26T02:23:05.865Z,16.96
2019-03-26T02:24:05.853Z,17.10
2019-03-26T02:25:05.893Z,17.20
2019-03-26T02:26:05.832Z,17.36
2019-03-26T02:27:05.821Z,17.41
2019-03-26T02:28:05.811Z,17.44
2019-03-26T02:29:05.798Z,17.51
2019-03-26T02:30:05.789Z,17.50
2019-03-26T02:31:05.989Z,17.53
2019-03-26T02:32:05.766Z,17.66
2019-03-26T02:33:05.762Z,17.62
2019-03-26T02:34:05.755Z,17.61
2019-03-26T02:35:17.750Z,17.62
2019-03-26T02:36:30.686Z,17.57
2019-03-26T02:37:30.680Z,17.47
2019-03-26T02:38:30.669Z,17.40
2019-03-26T02:39:30.658Z,17.25
2019-03-26T02:40:30.650Z,17.26
2019-03-26T02:41:30.733Z,17.18
2019-03-26T02:42:30.626Z,17.17
2019-03-26T02:43:30.615Z,17.15
2019-03-26T02:44:30.606Z,17.15
2019-03-26T02:45:30.598Z,17.14
2019-03-26T02:46:30.586Z,17.15
2019-03-26T02:47:30.627Z,17.18
2019-03-26T02:48:30.560Z,17.20
2019-03-26T02:49:30.555Z,17.15
2019-03-26T02:50:30.550Z,17.08
2019-03-26T02:51:30.537Z,17.08
2019-03-26T02:52:30.523Z,17.18
2019-03-26T02:53:30.669Z,17.23
2019-03-26T02:54:30.500Z,17.28
2019-03-26T02:55:30.489Z,17.25
2019-03-26T02:56:30.478Z,17.33
2019-03-26T02:57:30.473Z,17.33
2019-03-26T02:58:30.463Z,17.46
2019-03-26T02:59:30.505Z,17.53
2019-03-26T03:00:30.440Z,17.61
2019-03-26T03:01:30.425Z,17.77
2019-03-26T03:02:30.419Z,17.78
2019-03-26T03:03:30.405Z,17.88
2019-03-26T03:04:30.401Z,18.08
2019-03-26T03:05:35.669Z,18.12
2019-03-26T03:06:30.376Z,18.27
2019-03-26T03:07:30.364Z,18.58
2019-03-26T03:08:30.360Z,18.76
2019-03-26T03:09:30.346Z,18.94
2019-03-26T03:10:30.337Z,19.13
2019-03-26T03:11:30.477Z,19.19
2019-03-26T03:12:30.315Z,19.23
2019-03-26T03:13:30.298Z,19.39
2019-03-26T03:14:30.292Z,19.41
2019-03-26T03:15:30.347Z,19.39
2019-03-26T03:16:30.277Z,19.38
2019-03-26T03:17:30.365Z,19.42
2019-03-26T03:18:30.258Z,19.60
2019-03-26T03:19:30.239Z,19.91
2019-03-26T03:20:30.235Z,19.97
2019-03-26T03:21:30.224Z,20.10
2019-03-26T03:22:30.211Z,20.31
2019-03-26T03:23:30.252Z,20.41
2019-03-26T03:24:30.210Z,20.52
2019-03-26T03:25:30.187Z,20.71
2019-03-26T03:26:30.168Z,20.95
2019-03-26T03:27:30.161Z,21.24
2019-03-26T03:28:30.151Z,21.38
2019-03-26T03:29:30.338Z,21.57
2019-03-26T03:30:30.131Z,21.75
2019-03-26T03:31:30.122Z,21.96
2019-03-26T03:32:30.104Z,22.19
2019-03-26T03:33:30.095Z,22.24
2019-03-26T03:34:30.091Z,22.37
2019-03-26T03:35:30.169Z,22.62
2019-03-26T03:36:30.062Z,22.82
2019-03-26T03:37:30.064Z,23.04
2019-03-26T03:38:30.037Z,23.34
2019-03-26T03:39:30.030Z,23.48
2019-03-26T03:40:30.018Z,23.66
2019-03-26T03:41:30.064Z,23.81
2019-03-26T03:42:29.995Z,24.04
2019-03-26T03:43:29.984Z,24.16
2019-03-26T03:44:29.973Z,24.32
2019-03-26T03:45:29.963Z,24.47
2019-03-26T03:46:29.956Z,24.71
2019-03-26T03:47:30.193Z,24.74
2019-03-26T03:48:29.936Z,24.72
2019-03-26T03:49:29.918Z,24.86
2019-03-26T03:50:29.914Z,24.91
2019-03-26T03:51:29.899Z,24.90
2019-03-26T03:52:29.891Z,24.79
2019-03-26T03:53:29.981Z,24.68
2019-03-26T03:54:29.869Z,24.45
2019-03-26T03:55:29.856Z,24.45
2019-03-26T03:56:29.847Z,24.34
2019-03-26T03:57:29.850Z,24.16
2019-03-26T03:58:29.829Z,24.02
2019-03-26T03:59:29.867Z,23.76
2019-03-26T04:00:29.807Z,23.52
2019-03-26T04:01:29.796Z,23.49
2019-03-26T04:02:29.786Z,23.51
2019-03-26T04:03:29.776Z,23.44
2019-03-26T04:04:29.768Z,23.44
2019-03-26T04:05:29.907Z,23.41
2019-03-26T04:06:29.747Z,23.37
2019-03-26T04:07:29.735Z,23.38
2019-03-26T04:08:29.725Z,23.51
2019-03-26T04:09:29.710Z,23.51
2019-03-26T04:10:29.702Z,23.61
2019-03-26T04:11:29.739Z,23.60
2019-03-26T04:12:29.684Z,23.69
2019-03-26T04:13:29.671Z,23.76
2019-03-26T04:14:29.661Z,23.71
2019-03-26T04:15:29.651Z,23.89
2019-03-26T04:16:29.640Z,24.08
2019-03-26T04:17:29.681Z,24.05
2019-03-26T04:18:29.622Z,24.10
2019-03-26T04:19:29.610Z,24.12
2019-03-26T04:20:29.599Z,24.34
2019-03-26T04:21:29.588Z,24.38
2019-03-26T04:22:29.582Z,24.45
2019-03-26T04:23:29.968Z,24.60
2019-03-26T04:24:29.557Z,24.75
2019-03-26T04:25:29.550Z,24.84
2019-03-26T04:26:29.541Z,25.05
2019-03-26T04:27:29.526Z,24.99
2019-03-26T04:28:29.516Z,25.09
2019-03-26T04:29:29.557Z,25.26
2019-03-26T04:30:29.499Z,25.37
2019-03-26T04:31:29.486Z,25.54
2019-03-26T04:32:29.589Z,25.59
2019-03-26T04:33:29.465Z,25.68
2019-03-26T04:34:29.457Z,25.67
2019-03-26T04:35:29.496Z,25.59
2019-03-26T04:36:29.432Z,25.68
2019-03-26T04:37:29.421Z,25.75
2019-03-26T04:38:29.413Z,25.86
2019-03-26T04:39:29.401Z,25.98
2019-03-26T04:40:29.392Z,25.94
2019-03-26T04:41:29.595Z,26.05
2019-03-26T04:42:29.370Z,26.09
2019-03-26T04:43:29.361Z,26.14
2019-03-26T04:44:29.352Z,26.24
2019-03-26T04:45:29.337Z,26.21
2019-03-26T04:46:29.329Z,26.12
2019-03-26T04:47:29.366Z,26.20
2019-03-26T04:48:29.306Z,26.11
2019-03-26T04:49:29.298Z,26.17
2019-03-26T04:50:29.288Z,25.97
2019-03-26T04:51:29.276Z,26.02
2019-03-26T04:52:29.266Z,25.98
2019-03-26T04:53:29.306Z,26.06
2019-03-26T04:54:29.245Z,26.17
2019-03-26T04:55:29.233Z,26.19
2019-03-26T04:56:29.226Z,26.26
2019-03-26T04:57:29.215Z,26.21
2019-03-26T04:58:29.202Z,26.28
2019-03-26T04:59:29.440Z,26.30
2019-03-26T05:00:29.184Z,26.42
2019-03-26T05:01:29.173Z,26.41
2019-03-26T05:02:29.159Z,26.43
2019-03-26T05:03:29.149Z,26.46
2019-03-26T05:04:29.146Z,26.39
2019-03-26T05:05:29.231Z,26.45
2019-03-26T05:06:37.866Z,26.38
2019-03-26T05:07:53.922Z,26.41
2019-03-26T05:08:53.907Z,26.53
2019-03-26T05:09:53.899Z,26.30
2019-03-26T05:10:53.943Z,26.23
2019-03-26T05:11:53.878Z,26.16
2019-03-26T05:12:53.871Z,25.98
2019-03-26T05:13:53.857Z,25.87
2019-03-26T05:14:53.847Z,25.79
2019-03-26T05:15:53.837Z,25.77
2019-03-26T05:16:53.979Z,25.67
2019-03-26T05:17:56.486Z,25.80
2019-03-26T05:18:53.806Z,25.87
2019-03-26T05:19:53.800Z,26.09
2019-03-26T05:20:53.786Z,26.06
2019-03-26T05:21:53.776Z,26.21
2019-03-26T05:22:53.866Z,26.11
2019-03-26T05:23:53.754Z,26.04
2019-03-26T05:24:53.754Z,25.89
2019-03-26T05:25:53.733Z,25.94
2019-03-26T05:26:53.723Z,25.74
2019-03-26T05:27:53.715Z,25.72
2019-03-26T05:28:53.752Z,25.53
2019-03-26T05:29:53.692Z,25.38
2019-03-26T05:30:53.681Z,25.30
2019-03-26T05:31:53.674Z,25.27
2019-03-26T05:32:53.664Z,25.27
2019-03-26T05:33:53.655Z,25.29
2019-03-26T05:34:53.792Z,25.24
2019-03-26T05:35:53.631Z,25.04
2019-03-26T05:36:53.619Z,24.72
2019-03-26T05:37:53.612Z,24.47
2019-03-26T05:38:53.599Z,24.37
2019-03-26T05:39:53.590Z,24.26
2019-03-26T05:40:53.681Z,24.24
2019-03-26T05:41:53.570Z,24.29
2019-03-26T05:42:53.560Z,24.35
2019-03-26T05:43:53.548Z,24.50
2019-03-26T05:44:53.538Z,24.47
2019-03-26T05:45:53.531Z,24.47
2019-03-26T05:46:53.622Z,24.42
2019-03-26T05:47:53.507Z,24.59
2019-03-26T05:48:53.496Z,24.45
2019-03-26T05:49:53.484Z,24.35
2019-03-26T05:50:53.474Z,24.24
2019-03-26T05:51:53.465Z,24.01
2019-03-26T05:52:53.606Z,23.94
2019-03-26T05:53:53.452Z,23.81
2019-03-26T05:54:53.443Z,23.85
2019-03-26T05:55:53.425Z,23.91
2019-03-26T05:56:53.414Z,23.71
2019-03-26T05:57:53.405Z,23.71
2019-03-26T05:58:53.443Z,23.75
2019-03-26T05:59:53.384Z,23.64
2019-03-26T06:00:53.376Z,23.66
2019-03-26T06:01:53.363Z,23.60
2019-03-26T06:02:53.353Z,23.70
2019-03-26T06:03:53.343Z,23.64
2019-03-26T06:04:53.382Z,23.69
2019-03-26T06:05:53.319Z,23.78
2019-03-26T06:07:04.276Z,23.85
2019-03-26T06:08:18.114Z,24.02
2019-03-26T06:09:18.106Z,24.08
2019-03-26T06:10:18.245Z,24.12
2019-03-26T06:11:18.082Z,24.16
2019-03-26T06:12:18.074Z,24.02
2019-03-26T06:13:18.063Z,23.89
2019-03-26T06:14:18.054Z,23.69
2019-03-26T06:15:18.042Z,23.49
2019-03-26T06:16:18.133Z,23.56
2019-03-26T06:17:18.023Z,23.59
2019-03-26T06:18:18.017Z,23.69
2019-03-26T06:19:18.001Z,23.69
2019-03-26T06:20:17.991Z,23.82
2019-03-26T06:21:17.987Z,23.93
2019-03-26T06:22:18.078Z,24.01
2019-03-26T06:23:17.961Z,24.10
2019-03-26T06:24:17.952Z,24.17
2019-03-26T06:25:17.954Z,24.20
2019-03-26T06:26:17.929Z,24.24
2019-03-26T06:27:17.921Z,24.31
2019-03-26T06:28:18.060Z,24.31
2019-03-26T06:29:17.900Z,24.14
2019-03-26T06:30:17.888Z,24.10
2019-03-26T06:31:17.883Z,24.04
2019-03-26T06:32:17.866Z,23.94
2019-03-26T06:33:17.860Z,24.19
2019-03-26T06:34:17.896Z,24.23
2019-03-26T06:35:17.837Z,24.20
2019-03-26T06:36:17.825Z,24.17
2019-03-26T06:37:18.438Z,24.01
2019-03-26T06:38:17.808Z,23.86
2019-03-26T06:39:17.796Z,24.01
2019-03-26T06:40:17.886Z,24.04
2019-03-26T06:41:17.775Z,24.07
2019-03-26T06:42:17.765Z,23.99
2019-03-26T06:43:17.757Z,24.01
2019-03-26T06:44:17.748Z,24.01
2019-03-26T06:45:17.738Z,24.01
2019-03-26T06:46:18.174Z,24.08
2019-03-26T06:47:17.712Z,24.07
2019-03-26T06:48:17.705Z,24.04
2019-03-26T06:49:17.694Z,24.12
2019-03-26T06:50:17.682Z,24.10
2019-03-26T06:51:17.670Z,24.14
2019-03-26T06:52:17.715Z,24.01
2019-03-26T06:53:17.652Z,23.81
2019-03-26T06:54:17.640Z,23.67
2019-03-26T06:55:17.632Z,23.66
2019-03-26T06:56:17.621Z,23.69
2019-03-26T06:57:17.610Z,23.76
2019-03-26T06:58:17.651Z,23.82
2019-03-26T06:59:17.590Z,23.81
2019-03-26T07:00:17.579Z,23.71
2019-03-26T07:01:17.571Z,23.85
2019-03-26T07:02:17.559Z,23.82
2019-03-26T07:03:17.550Z,23.85
2019-03-26T07:04:17.686Z,23.79
2019-03-26T07:05:17.529Z,23.75
2019-03-26T07:06:17.519Z,23.66
2019-03-26T07:07:30.597Z,23.70
2019-03-26T07:08:42.306Z,23.60
2019-03-26T07:09:42.352Z,23.44
2019-03-26T07:10:42.307Z,23.45
2019-03-26T07:11:42.285Z,23.61
2019-03-26T07:12:42.266Z,23.60
2019-03-26T07:13:42.259Z,23.60
2019-03-26T07:14:42.246Z,23.45
2019-03-26T07:15:42.286Z,23.46
2019-03-26T07:16:42.230Z,23.59
2019-03-26T07:17:42.217Z,23.57
2019-03-26T07:18:42.205Z,23.59
2019-03-26T07:19:42.194Z,23.71
2019-03-26T07:20:42.183Z,23.81
2019-03-26T07:21:49.645Z,23.91
2019-03-26T07:23:08.475Z,24.08
2019-03-26T07:24:06.964Z,23.97
2019-03-26T07:25:06.956Z,23.94
2019-03-26T07:26:06.942Z,23.99
2019-03-26T07:27:06.985Z,23.94
2019-03-26T07:28:06.925Z,24.01
2019-03-26T07:29:06.914Z,24.24
2019-03-26T07:30:06.904Z,24.34
2019-03-26T07:31:06.891Z,24.37
2019-03-26T07:32:06.881Z,24.47
2019-03-26T07:33:06.921Z,24.41
2019-03-26T07:34:07.256Z,24.47
2019-03-26T07:35:06.851Z,24.49
2019-03-26T07:36:06.841Z,24.56
2019-03-26T07:37:06.829Z,24.64
2019-03-26T07:38:06.819Z,24.74
2019-03-26T07:39:06.959Z,24.87
2019-03-26T07:40:06.796Z,24.91
2019-03-26T07:41:06.788Z,25.06
2019-03-26T07:42:06.838Z,25.01
2019-03-26T07:43:06.768Z,24.93
2019-03-26T07:44:06.757Z,24.93
2019-03-26T07:45:06.794Z,24.79
2019-03-26T07:46:06.735Z,24.81
2019-03-26T07:47:06.725Z,24.72
2019-03-26T07:48:06.713Z,24.63
2019-03-26T07:49:06.702Z,24.64
2019-03-26T07:50:06.691Z,24.64
2019-03-26T07:51:06.778Z,24.60
2019-03-26T07:52:06.670Z,24.47
2019-03-26T07:53:06.657Z,24.39
2019-03-26T07:54:06.649Z,24.41
2019-03-26T07:55:06.640Z,24.35
2019-03-26T07:56:06.628Z,24.45
2019-03-26T07:57:07.016Z,24.57
2019-03-26T07:58:06.609Z,24.61
2019-03-26T07:59:06.667Z,24.54
2019-03-26T08:00:06.586Z,24.71
2019-03-26T08:01:06.576Z,24.72
2019-03-26T08:02:06.648Z,24.87
2019-03-26T08:03:06.604Z,24.97
2019-03-26T08:04:06.548Z,25.06
2019-03-26T08:05:06.533Z,25.08
2019-03-26T08:06:06.527Z,25.05
2019-03-26T08:07:06.511Z,25.01
2019-03-26T08:08:06.511Z,24.93
2019-03-26T08:09:06.550Z,24.78
2019-03-26T08:10:06.484Z,24.61
2019-03-26T08:11:06.469Z,24.67
2019-03-26T08:12:06.458Z,24.60
2019-03-26T08:13:06.514Z,24.47
2019-03-26T08:14:06.460Z,24.47
2019-03-26T08:15:06.580Z,24.56
2019-03-26T08:16:06.499Z,24.61
2019-03-26T08:17:06.429Z,24.76
2019-03-26T08:18:06.395Z,24.79
2019-03-26T08:19:06.388Z,24.84
2019-03-26T08:20:06.376Z,24.74
2019-03-26T08:21:06.417Z,24.86
2019-03-26T08:22:06.353Z,24.86
2019-03-26T08:23:06.344Z,24.61
2019-03-26T08:24:06.335Z,24.57
2019-03-26T08:25:06.322Z,24.35
2019-03-26T08:26:06.311Z,24.44
2019-03-26T08:27:06.351Z,24.53
2019-03-26T08:28:06.314Z,24.56
2019-03-26T08:29:06.279Z,24.63
2019-03-26T08:30:06.268Z,24.74
2019-03-26T08:31:06.259Z,24.82
2019-03-26T08:32:06.251Z,24.89
2019-03-26T08:33:06.287Z,24.81
2019-03-26T08:34:06.225Z,24.87
2019-03-26T08:35:06.215Z,24.91
2019-03-26T08:36:06.213Z,24.68
2019-03-26T08:37:06.201Z,24.71
2019-03-26T08:38:12.369Z,24.97
2019-03-26T08:39:31.042Z,25.04
2019-03-26T08:40:31.036Z,25.06
2019-03-26T08:41:31.017Z,25.15
2019-03-26T08:42:31.010Z,25.14
2019-03-26T08:43:30.995Z,25.09
2019-03-26T08:44:31.033Z,25.15
2019-03-26T08:45:30.973Z,24.97
2019-03-26T08:46:30.962Z,25.04
2019-03-26T08:47:30.957Z,24.90
2019-03-26T08:48:30.939Z,25.00
2019-03-26T08:49:31.213Z,24.99
2019-03-26T08:50:30.973Z,25.14
2019-03-26T08:51:30.908Z,25.29
2019-03-26T08:52:30.899Z,25.31
2019-03-26T08:53:30.887Z,25.36
2019-03-26T08:54:30.879Z,25.37
2019-03-26T08:55:30.866Z,25.49
2019-03-26T08:56:30.905Z,25.19
2019-03-26T08:57:30.850Z,24.91
2019-03-26T08:58:30.833Z,24.81
2019-03-26T08:59:30.824Z,24.78
2019-03-26T09:00:32.227Z,24.96
2019-03-26T09:01:30.806Z,25.05
2019-03-26T09:02:30.851Z,25.27
2019-03-26T09:03:30.782Z,25.34
2019-03-26T09:04:30.775Z,25.42
2019-03-26T09:05:30.760Z,25.38
2019-03-26T09:06:30.749Z,25.29
2019-03-26T09:07:30.738Z,25.11
2019-03-26T09:08:30.782Z,25.06
2019-03-26T09:09:30.723Z,25.00
2019-03-26T09:10:30.711Z,24.89
2019-03-26T09:11:30.694Z,24.89
2019-03-26T09:12:30.686Z,25.05
2019-03-26T09:13:30.677Z,25.05
2019-03-26T09:14:30.717Z,25.14
2019-03-26T09:15:30.657Z,24.96
2019-03-26T09:16:30.644Z,25.12
2019-03-26T09:17:30.636Z,25.23
2019-03-26T09:18:30.622Z,25.26
2019-03-26T09:19:30.618Z,25.27
2019-03-26T09:20:30.653Z,25.30
2019-03-26T09:21:32.625Z,25.29
2019-03-26T09:22:30.580Z,25.23
2019-03-26T09:23:30.570Z,25.36
2019-03-26T09:24:30.559Z,25.42
2019-03-26T09:25:30.548Z,25.46
2019-03-26T09:26:30.639Z,25.46
2019-03-26T09:27:30.526Z,25.36
2019-03-26T09:28:30.516Z,25.29
2019-03-26T09:29:30.506Z,25.36
2019-03-26T09:30:30.496Z,25.30
2019-03-26T09:31:30.485Z,25.37
2019-03-26T09:32:30.523Z,25.21
2019-03-26T09:33:30.468Z,25.14
2019-03-26T09:34:30.460Z,25.00
2019-03-26T09:35:30.451Z,24.87
2019-03-26T09:36:30.432Z,24.97
2019-03-26T09:37:30.424Z,24.87
2019-03-26T09:38:38.760Z,24.90
2019-03-26T09:39:55.215Z,24.81
2019-03-26T09:40:55.202Z,24.64
2019-03-26T09:41:55.191Z,24.45
2019-03-26T09:42:55.181Z,24.44
2019-03-26T09:43:55.223Z,24.27
2019-03-26T09:44:56.621Z,24.14
2019-03-26T09:45:55.157Z,24.05
2019-03-26T09:46:55.145Z,23.85
2019-03-26T09:47:55.143Z,23.78
2019-03-26T09:48:55.123Z,23.61
2019-03-26T09:49:55.159Z,23.46
2019-03-26T09:50:55.099Z,23.46
2019-03-26T09:51:55.092Z,23.48
2019-03-26T09:52:55.081Z,23.49
2019-03-26T09:53:55.071Z,23.59
2019-03-26T09:54:55.060Z,23.54
2019-03-26T09:55:55.161Z,23.61
2019-03-26T09:56:55.037Z,23.56
2019-03-26T09:57:55.032Z,23.59
2019-03-26T09:58:55.018Z,23.60
2019-03-26T09:59:55.007Z,23.57
2019-03-26T10:00:55.005Z,23.69
2019-03-26T10:01:55.039Z,23.66
2019-03-26T10:02:55.017Z,23.64
2019-03-26T10:03:54.972Z,23.66
2019-03-26T10:04:54.959Z,23.67
2019-03-26T10:05:54.943Z,23.74
2019-03-26T10:06:54.935Z,23.66
2019-03-26T10:07:55.031Z,23.66
2019-03-26T10:08:54.913Z,23.67
2019-03-26T10:09:54.901Z,23.64
2019-03-26T10:10:54.892Z,23.66
2019-03-26T10:11:54.886Z,23.63
2019-03-26T10:12:54.871Z,23.74
2019-03-26T10:13:54.914Z,23.64
2019-03-26T10:14:54.851Z,23.69
2019-03-26T10:15:54.877Z,23.64
2019-03-26T10:16:54.834Z,23.59
2019-03-26T10:17:54.820Z,23.67
2019-03-26T10:18:54.812Z,23.52
2019-03-26T10:19:54.853Z,23.51
2019-03-26T10:20:54.788Z,23.46
2019-03-26T10:21:54.778Z,23.45
2019-03-26T10:22:54.766Z,23.44
2019-03-26T10:23:54.757Z,23.39
2019-03-26T10:24:54.745Z,23.39
2019-03-26T10:25:54.788Z,23.42
2019-03-26T10:26:54.727Z,23.34
2019-03-26T10:27:54.717Z,23.37
2019-03-26T10:28:54.706Z,23.42
2019-03-26T10:29:54.694Z,23.41
2019-03-26T10:30:54.681Z,23.34
2019-03-26T10:31:54.732Z,23.34
2019-03-26T10:32:54.665Z,23.23
2019-03-26T10:33:54.654Z,23.19
2019-03-26T10:34:54.640Z,23.20
2019-03-26T10:35:54.629Z,23.09
2019-03-26T10:36:54.619Z,23.07
2019-03-26T10:37:54.711Z,23.12
2019-03-26T10:39:05.134Z,23.23
2019-03-26T10:40:19.410Z,23.20
2019-03-26T10:41:19.389Z,23.19
2019-03-26T10:42:19.389Z,23.24
2019-03-26T10:43:19.421Z,23.20
2019-03-26T10:44:19.374Z,23.26
2019-03-26T10:45:19.349Z,23.15
2019-03-26T10:46:19.339Z,23.14
2019-03-26T10:47:19.328Z,23.09
2019-03-26T10:48:19.318Z,23.17
2019-03-26T10:49:19.358Z,23.11
2019-03-26T10:50:19.301Z,23.19
2019-03-26T10:51:19.292Z,23.11
2019-03-26T10:52:19.276Z,23.20
2019-03-26T10:53:19.264Z,23.19
2019-03-26T10:54:19.252Z,23.19
2019-03-26T10:55:19.292Z,23.23
2019-03-26T10:56:19.233Z,23.20
2019-03-26T10:57:21.785Z,23.14
2019-03-26T10:58:19.210Z,23.26
2019-03-26T10:59:19.202Z,23.22
2019-03-26T11:00:19.194Z,23.26
2019-03-26T11:01:19.225Z,23.24
2019-03-26T11:02:19.170Z,23.22
2019-03-26T11:03:19.165Z,23.19
2019-03-26T11:04:19.145Z,23.26
2019-03-26T11:05:19.137Z,23.23
2019-03-26T11:06:19.127Z,23.23
2019-03-26T11:07:19.162Z,23.17
2019-03-26T11:08:19.100Z,23.08
2019-03-26T11:09:25.374Z,23.23
2019-03-26T11:10:43.896Z,23.14
2019-03-26T11:11:43.886Z,23.17
2019-03-26T11:12:43.921Z,23.11
2019-03-26T11:13:43.862Z,23.17
2019-03-26T11:14:43.856Z,23.09
2019-03-26T11:15:43.839Z,23.07
2019-03-26T11:16:43.840Z,22.93
2019-03-26T11:17:43.828Z,22.99
2019-03-26T11:18:43.863Z,22.86
2019-03-26T11:19:46.244Z,22.77
2019-03-26T11:20:43.788Z,22.82
2019-03-26T11:21:43.777Z,22.86
2019-03-26T11:22:43.766Z,22.78
2019-03-26T11:23:43.754Z,22.83
2019-03-26T11:24:43.794Z,22.75
2019-03-26T11:25:43.734Z,22.74
2019-03-26T11:26:43.723Z,22.67
2019-03-26T11:27:43.713Z,22.69
2019-03-26T11:28:43.706Z,22.68
2019-03-26T11:29:43.692Z,22.65
2019-03-26T11:30:43.728Z,22.64
2019-03-26T11:31:43.671Z,22.60
2019-03-26T11:32:43.659Z,22.55
2019-03-26T11:33:43.650Z,22.60
2019-03-26T11:34:43.647Z,22.56
2019-03-26T11:35:43.626Z,22.62
2019-03-26T11:36:43.666Z,22.64
2019-03-26T11:37:43.679Z,22.55
2019-03-26T11:38:43.597Z,22.68
2019-03-26T11:39:43.585Z,22.72
2019-03-26T11:40:43.574Z,22.75
2019-03-26T11:41:43.619Z,22.84
2019-03-26T11:42:44.991Z,22.80
2019-03-26T11:43:43.595Z,22.84
2019-03-26T11:44:43.530Z,22.84
2019-03-26T11:45:43.518Z,22.83
2019-03-26T11:46:43.505Z,22.82
2019-03-26T11:47:43.529Z,22.77
2019-03-26T11:48:43.622Z,22.72
2019-03-26T11:49:43.509Z,22.72
2019-03-26T11:50:43.526Z,22.60
2019-03-26T11:51:43.492Z,22.60
2019-03-26T11:52:43.442Z,22.64
2019-03-26T11:53:43.462Z,22.49
2019-03-26T11:54:43.508Z,22.52
2019-03-26T11:55:43.416Z,22.51
2019-03-26T11:56:43.403Z,22.37
2019-03-26T11:57:43.400Z,22.34
2019-03-26T11:58:43.378Z,22.38
2019-03-26T11:59:43.373Z,22.30
2019-03-26T12:00:43.418Z,22.33
2019-03-26T12:01:43.348Z,22.31
2019-03-26T12:02:43.337Z,22.31
2019-03-26T12:03:43.325Z,22.22
2019-03-26T12:04:43.317Z,22.16
2019-03-26T12:05:43.306Z,22.16
2019-03-26T12:06:43.402Z,22.11
2019-03-26T12:07:43.290Z,21.98
2019-03-26T12:08:43.273Z,22.01
2019-03-26T12:09:46.651Z,22.00
2019-03-26T12:10:43.251Z,21.97
2019-03-26T12:11:43.242Z,21.94
2019-03-26T12:12:43.331Z,21.83
2019-03-26T12:13:43.224Z,21.89
2019-03-26T12:14:43.213Z,21.71
2019-03-26T12:15:43.195Z,21.67
2019-03-26T12:16:43.187Z,21.69
2019-03-26T12:17:43.178Z,21.67
2019-03-26T12:18:43.266Z,21.57
2019-03-26T12:19:43.156Z,21.59
2019-03-26T12:20:43.144Z,21.56
2019-03-26T12:21:43.138Z,21.56
2019-03-26T12:22:43.127Z,21.41
2019-03-26T12:23:43.114Z,21.41
2019-03-26T12:24:43.156Z,21.34
2019-03-26T12:25:43.091Z,21.30
2019-03-26T12:26:43.079Z,21.41
2019-03-26T12:27:43.072Z,21.26
2019-03-26T12:28:43.061Z,21.15
2019-03-26T12:29:43.059Z,21.23
2019-03-26T12:30:43.139Z,21.13
2019-03-26T12:31:43.028Z,21.08
2019-03-26T12:32:43.019Z,21.08
2019-03-26T12:33:43.007Z,20.95
2019-03-26T12:34:43.000Z,20.94
2019-03-26T12:35:42.990Z,20.94
2019-03-26T12:36:43.026Z,20.90
2019-03-26T12:37:42.971Z,20.95
2019-03-26T12:38:42.957Z,20.89
2019-03-26T12:39:44.320Z,20.79
2019-03-26T12:40:42.937Z,20.83
2019-03-26T12:41:42.926Z,20.76
2019-03-26T12:42:42.965Z,20.70
2019-03-26T12:43:42.906Z,20.73
2019-03-26T12:44:42.894Z,20.73
2019-03-26T12:45:42.881Z,20.63
2019-03-26T12:46:42.871Z,20.60
2019-03-26T12:47:42.866Z,20.58
2019-03-26T12:48:42.903Z,20.67
2019-03-26T12:49:42.841Z,20.55
2019-03-26T12:50:42.835Z,20.60
2019-03-26T12:51:42.825Z,20.52
2019-03-26T12:52:42.810Z,20.50
2019-03-26T12:53:42.804Z,20.48
2019-03-26T12:54:42.842Z,20.43
2019-03-26T12:55:42.782Z,20.43
2019-03-26T12:56:42.776Z,20.48
2019-03-26T12:57:42.758Z,20.39
2019-03-26T12:58:42.749Z,20.33
2019-03-26T12:59:42.738Z,20.41
2019-03-26T13:00:42.781Z,20.28
2019-03-26T13:01:42.721Z,20.30
2019-03-26T13:02:42.711Z,20.27
2019-03-26T13:03:42.702Z,20.25
2019-03-26T13:04:42.691Z,20.21
2019-03-26T13:05:42.683Z,20.21
2019-03-26T13:06:42.719Z,20.18
2019-03-26T13:07:42.658Z,20.16
2019-03-26T13:08:42.653Z,20.09
2019-03-26T13:09:42.643Z,20.08
2019-03-26T13:10:52.701Z,20.09
2019-03-26T13:12:07.479Z,20.16
2019-03-26T13:13:07.471Z,20.09
2019-03-26T13:14:07.460Z,20.13
2019-03-26T13:15:07.448Z,20.09
2019-03-26T13:16:07.490Z,20.08
2019-03-26T13:17:07.482Z,20.06
2019-03-26T13:18:07.422Z,20.13
2019-03-26T13:19:07.404Z,20.02
2019-03-26T13:20:07.399Z,20.10
2019-03-26T13:21:07.388Z,20.08
2019-03-26T13:22:07.377Z,20.08
2019-03-26T13:23:07.418Z,19.98
2019-03-26T13:24:07.358Z,19.98
2019-03-26T13:25:07.371Z,19.97
2019-03-26T13:26:07.338Z,19.97
2019-03-26T13:27:07.327Z,19.95
2019-03-26T13:28:07.316Z,19.97
2019-03-26T13:29:07.353Z,19.84
2019-03-26T13:30:07.295Z,19.94
2019-03-26T13:31:07.285Z,19.84
2019-03-26T13:32:07.270Z,19.83
2019-03-26T13:33:07.260Z,19.83
2019-03-26T13:34:07.251Z,19.83
2019-03-26T13:35:07.294Z,19.79
2019-03-26T13:36:07.230Z,19.79
2019-03-26T13:37:07.222Z,19.83
2019-03-26T13:38:07.208Z,19.78
2019-03-26T13:39:07.198Z,19.80
2019-03-26T13:40:07.189Z,19.69
2019-03-26T13:41:07.231Z,19.71
2019-03-26T13:42:07.168Z,19.68
2019-03-26T13:43:07.159Z,19.68
2019-03-26T13:44:07.146Z,19.68
2019-03-26T13:45:07.134Z,19.69
2019-03-26T13:46:07.124Z,19.68
2019-03-26T13:47:07.213Z,19.71
2019-03-26T13:48:07.101Z,19.68
2019-03-26T13:49:07.101Z,19.62